Time;durP1;ratioP1;P1;durP2;ratioP2;P2;SDS_P1;SDS_P2;PMS_P1;PMS_P2;Temp;Humidity;BMP_temperature;BMP_pressure;BME280_temperature;BME280_humidity;BME280_pressure;Samples;Min_cycle;Max_cycle;Signal;HPM_P1;HPM_P2
2022/11/24 00:01:24;;;;;;;;;62.50;48.50;;;;;;;;6488410;39;8851;-57
2022/11/24 00:07:28;;;;;;;;;50.00;43.75;;;;;;;;6487669;39;8965;-52
2022/11/24 00:13:32;;;;;;;;;54.00;45.75;;;;;;;;6488603;31;8939;-56
2022/11/24 00:19:34;;;;;;;;;57.50;46.75;;;;;;;;6487986;39;9585;-54
2022/11/24 00:25:36;;;;;;;;;56.00;45.00;;;;;;;;6488213;46;8875;-55
2022/11/24 00:31:41;;;;;;;;;62.50;47.75;;;;;;;;6488200;39;8963;-56
2022/11/24 00:37:43;;;;;;;;;45.50;40.50;;;;;;;;6489036;39;8867;-57
2022/11/24 00:43:45;;;;;;;;;66.50;51.00;;;;;;;;6489984;46;9024;-56
2022/11/24 00:49:48;;;;;;;;;58.75;49.25;;;;;;;;6489972;39;8884;-56
2022/11/24 00:55:50;;;;;;;;;62.50;51.25;;;;;;;;6489533;31;8953;-56
2022/11/24 01:01:55;;;;;;;;;65.50;50.75;;;;;;;;6489531;39;8891;-58
2022/11/24 01:07:57;;;;;;;;;68.75;52.25;;;;;;;;6489296;31;8923;-58
2022/11/24 01:13:59;;;;;;;;;68.33;52.33;;;;;;;;6490201;39;8949;-56
2022/11/24 01:20:03;;;;;;;;;60.50;47.25;;;;;;;;6489986;39;9715;-59
2022/11/24 01:26:08;;;;;;;;;56.50;47.00;;;;;;;;6490081;39;8871;-56
2022/11/24 01:32:11;;;;;;;;;63.75;47.00;;;;;;;;6489820;39;8905;-57
2022/11/24 01:38:13;;;;;;;;;54.25;40.25;;;;;;;;6489660;39;8946;-55
2022/11/24 01:44:26;;;;;;;;;46.50;40.75;;;;;;;;6489675;39;8980;-56
2022/11/24 01:50:29;;;;;;;;;57.00;43.25;;;;;;;;6490215;39;8887;-58
2022/11/24 01:56:38;;;;;;;;;51.50;43.00;;;;;;;;6489778;39;9045;-62
2022/11/24 02:02:43;;;;;;;;;60.50;45.00;;;;;;;;6488985;39;9185;-57
2022/11/24 02:09:10;;;;;;;;;50.50;40.25;;;;;;;;6489567;31;8896;-55
2022/11/24 02:15:15;;;;;;;;;39.00;34.50;;;;;;;;6489065;39;8923;-57
2022/11/24 02:21:17;;;;;;;;;54.00;42.25;;;;;;;;6488830;46;8872;-57
2022/11/24 02:27:20;;;;;;;;;42.00;37.50;;;;;;;;6489285;39;8876;-58
2022/11/24 02:33:25;;;;;;;;;47.25;37.00;;;;;;;;6488540;46;8876;-56
2022/11/24 02:39:27;;;;;;;;;41.50;38.75;;;;;;;;6489062;31;8937;-58
2022/11/24 02:45:32;;;;;;;;;37.00;34.25;;;;;;;;6489591;39;8975;-56
2022/11/24 02:51:34;;;;;;;;;44.00;39.00;;;;;;;;6489078;39;8884;-55
2022/11/24 02:57:37;;;;;;;;;49.75;41.00;;;;;;;;6488912;46;8893;-56
2022/11/24 03:03:39;;;;;;;;;42.00;38.75;;;;;;;;6488245;39;9030;-57
2022/11/24 03:09:41;;;;;;;;;39.25;36.25;;;;;;;;6488965;31;9001;-56
2022/11/24 03:15:43;;;;;;;;;42.75;38.75;;;;;;;;6489339;39;8989;-56
2022/11/24 03:21:45;;;;;;;;;38.25;35.00;;;;;;;;6487933;39;8861;-56
2022/11/24 03:27:47;;;;;;;;;40.25;34.50;;;;;;;;6489347;31;8929;-57
2022/11/24 03:33:51;;;;;;;;;48.50;40.25;;;;;;;;6488183;46;8908;-56
2022/11/24 03:39:53;;;;;;;;;48.00;41.25;;;;;;;;6489138;39;9522;-60
2022/11/24 03:45:58;;;;;;;;;43.50;38.25;;;;;;;;6488473;39;8885;-57
2022/11/24 03:52:01;;;;;;;;;44.00;37.50;;;;;;;;6488365;39;8883;-55
2022/11/24 03:58:08;;;;;;;;;39.50;36.50;;;;;;;;6489338;39;9032;-57
2022/11/24 04:04:11;;;;;;;;;50.00;42.25;;;;;;;;6487745;39;9108;-57
2022/11/24 04:10:13;;;;;;;;;42.75;36.00;;;;;;;;6488395;39;8873;-55
2022/11/24 04:16:17;;;;;;;;;45.75;41.00;;;;;;;;6489413;39;8911;-57
2022/11/24 04:22:19;;;;;;;;;47.50;39.00;;;;;;;;6488368;39;8938;-55
2022/11/24 04:28:21;;;;;;;;;47.75;39.00;;;;;;;;6488471;39;8935;-57
2022/11/24 04:34:23;;;;;;;;;50.50;41.25;;;;;;;;6487195;39;8912;-58
2022/11/24 04:40:25;;;;;;;;;57.00;41.75;;;;;;;;6488432;39;9379;-57
2022/11/24 04:46:28;;;;;;;;;48.75;40.25;;;;;;;;6487018;47;8872;-56
2022/11/24 04:52:31;;;;;;;;;52.25;43.00;;;;;;;;6487496;39;8955;-56
2022/11/24 04:58:36;;;;;;;;;53.00;43.25;;;;;;;;6489147;39;9450;-57
2022/11/24 05:04:41;;;;;;;;;58.50;47.25;;;;;;;;6462125;47;9005;-62
2022/11/24 05:10:44;;;;;;;;;50.75;43.25;;;;;;;;6490034;39;8908;-62
2022/11/24 05:16:46;;;;;;;;;46.50;38.75;;;;;;;;6489977;39;8965;-62
2022/11/24 09:15:15;;;;;;;;;36.75;29.25;;;;;;;;6466866;39;8991;-59
2022/11/24 09:21:19;;;;;;;;;34.50;31.75;;;;;;;;6491155;46;8919;-60
2022/11/24 09:27:23;;;;;;;;;29.50;23.00;;;;;;;;6489871;46;8952;-59
2022/11/24 09:33:26;;;;;;;;;49.25;40.00;;;;;;;;6490279;46;8994;-60
2022/11/24 09:39:28;;;;;;;;;40.00;35.00;;;;;;;;6489831;31;9027;-60
2022/11/24 09:46:02;;;;;;;;;47.75;38.75;;;;;;;;6491071;31;8879;-60
2022/11/24 09:52:16;;;;;;;;;37.50;34.00;;;;;;;;6489131;31;8951;-60
2022/11/24 10:05:04;;;;;;;;;44.50;39.50;;;;;;;;6489502;46;8914;-59
2022/11/24 10:11:30;;;;;;;;;24.50;22.00;;;;;;;;6488802;31;9028;-58
2022/11/24 10:17:44;;;;;;;;;68.00;53.00;;;;;;;;6488724;31;9042;-60
2022/11/24 10:24:12;;;;;;;;;39.75;36.75;;;;;;;;6489347;39;8906;-59
2022/11/24 10:30:22;;;;;;;;;39.75;35.25;;;;;;;;6491030;39;8921;-60
2022/11/24 10:36:39;;;;;;;;;42.00;36.50;;;;;;;;6488789;39;9422;-60
2022/11/24 10:42:42;;;;;;;;;33.50;31.00;;;;;;;;6489975;39;8925;-59
2022/11/24 10:48:50;;;;;;;;;44.50;37.00;;;;;;;;6490685;31;8888;-60
2022/11/24 10:55:00;;;;;;;;;34.00;30.75;;;;;;;;6491184;31;8906;-59
2022/11/24 11:01:12;;;;;;;;;36.75;34.50;;;;;;;;6488567;39;8921;-60
2022/11/24 11:07:32;;;;;;;;;42.75;35.00;;;;;;;;6488420;46;8898;-60
2022/11/24 11:13:34;;;;;;;;;40.00;38.00;;;;;;;;6488540;31;9207;-59
2022/11/24 11:19:37;;;;;;;;;36.50;32.50;;;;;;;;6485689;39;8934;-60
2022/11/24 11:26:36;;;;;;;;;39.25;37.50;;;;;;;;6482804;46;8928;-60
2022/11/24 11:32:54;;;;;;;;;40.00;34.00;;;;;;;;6482716;46;8988;-59
2022/11/24 11:39:36;;;;;;;;;49.75;41.00;;;;;;;;6485583;39;9676;-59
2022/11/24 11:46:01;;;;;;;;;50.75;41.25;;;;;;;;6487166;31;9000;-60
2022/11/24 11:52:25;;;;;;;;;44.00;36.00;;;;;;;;6487539;46;8974;-60
2022/11/24 11:58:36;;;;;;;;;47.25;41.75;;;;;;;;6485283;31;9028;-61
2022/11/24 12:05:10;;;;;;;;;44.50;39.25;;;;;;;;6485783;31;8942;-60
2022/11/24 12:11:20;;;;;;;;;40.00;35.50;;;;;;;;6484991;31;9113;-60
2022/11/24 12:17:32;;;;;;;;;40.25;38.25;;;;;;;;6485235;31;8978;-60
2022/11/24 12:23:52;;;;;;;;;40.50;36.75;;;;;;;;6484527;39;8930;-60
2022/11/24 12:30:08;;;;;;;;;32.75;30.50;;;;;;;;6485232;31;8978;-60
2022/11/24 12:36:15;;;;;;;;;35.75;31.75;;;;;;;;6484910;31;8940;-60
2022/11/24 12:42:34;;;;;;;;;34.00;31.75;;;;;;;;6487733;31;8941;-61
2022/11/24 12:48:58;;;;;;;;;21.00;19.75;;;;;;;;6486771;31;8930;-59
2022/11/24 12:55:02;;;;;;;;;21.50;19.75;;;;;;;;6484963;46;8958;-59
2022/11/24 13:01:36;;;;;;;;;22.00;19.75;;;;;;;;6484932;46;8935;-59
2022/11/24 13:07:45;;;;;;;;;53.00;45.75;;;;;;;;6487320;46;8981;-61
2022/11/24 13:14:12;;;;;;;;;19.75;17.50;;;;;;;;6487032;39;9938;-61
2022/11/24 13:20:30;;;;;;;;;20.75;17.00;;;;;;;;6484864;46;9118;-61
2022/11/24 13:26:42;;;;;;;;;17.00;15.50;;;;;;;;6485831;31;8955;-59
2022/11/24 13:32:45;;;;;;;;;18.00;16.50;;;;;;;;6485335;39;9026;-58
2022/11/24 13:38:47;;;;;;;;;16.50;16.50;;;;;;;;6486884;39;8914;-59
2022/11/24 13:44:58;;;;;;;;;19.50;16.25;;;;;;;;6487346;39;9563;-59
2022/11/24 13:51:00;;;;;;;;;25.75;25.00;;;;;;;;6486678;31;8927;-60
2022/11/24 13:57:32;;;;;;;;;21.75;21.75;;;;;;;;6487036;39;9641;-60
2022/11/24 14:03:42;;;;;;;;;21.00;20.25;;;;;;;;6487334;39;8908;-60
2022/11/24 14:09:57;;;;;;;;;16.25;14.50;;;;;;;;6486190;39;9018;-60
2022/11/24 14:16:02;;;;;;;;;25.50;23.75;;;;;;;;6486856;39;8993;-59
2022/11/24 14:22:13;;;;;;;;;30.00;28.00;;;;;;;;6487466;31;8935;-61
2022/11/24 14:28:26;;;;;;;;;20.75;20.50;;;;;;;;6485660;46;8931;-60
2022/11/24 14:34:35;;;;;;;;;19.25;18.00;;;;;;;;6486580;31;9657;-61
2022/11/24 14:40:41;;;;;;;;;30.25;24.50;;;;;;;;6485865;39;8919;-60
2022/11/24 14:46:44;;;;;;;;;26.25;26.25;;;;;;;;6486079;31;8933;-60
2022/11/24 14:52:52;;;;;;;;;32.25;32.00;;;;;;;;6487343;39;9060;-59
2022/11/24 14:58:56;;;;;;;;;30.25;28.75;;;;;;;;6483523;39;8971;-58
2022/11/24 15:04:59;;;;;;;;;23.00;18.75;;;;;;;;6482626;31;8934;-60
2022/11/24 15:11:06;;;;;;;;;50.25;40.50;;;;;;;;6488661;39;9039;-59
2022/11/24 15:17:19;;;;;;;;;23.75;23.00;;;;;;;;6486845;31;8949;-59
2022/11/24 15:23:26;;;;;;;;;29.25;22.50;;;;;;;;6488085;31;8960;-60
2022/11/24 15:29:29;;;;;;;;;24.75;21.50;;;;;;;;6488383;39;8927;-60
2022/11/24 15:35:32;;;;;;;;;24.50;22.00;;;;;;;;6488282;39;8932;-60
2022/11/24 15:41:34;;;;;;;;;21.50;20.25;;;;;;;;6489003;31;9040;-59
2022/11/24 15:47:36;;;;;;;;;27.50;23.75;;;;;;;;6489197;39;8995;-59
2022/11/24 15:53:43;;;;;;;;;24.25;22.00;;;;;;;;6489401;39;8958;-60
2022/11/24 15:59:45;;;;;;;;;23.25;20.25;;;;;;;;6488918;39;9547;-62
2022/11/24 16:05:52;;;;;;;;;24.00;22.75;;;;;;;;6489171;31;8860;-59
2022/11/24 16:11:54;;;;;;;;;29.75;25.25;;;;;;;;6488411;39;8941;-59
2022/11/24 16:17:56;;;;;;;;;30.00;28.50;;;;;;;;6488706;47;8966;-60
2022/11/24 16:23:59;;;;;;;;;31.75;27.75;;;;;;;;6488966;31;9017;-64
2022/11/24 16:30:01;;;;;;;;;32.00;29.50;;;;;;;;6488429;47;8871;-60
2022/11/24 16:36:04;;;;;;;;;35.00;28.00;;;;;;;;6488533;39;9673;-60
2022/11/24 16:42:07;;;;;;;;;32.00;29.25;;;;;;;;6488209;31;10038;-59
2022/11/24 16:48:09;;;;;;;;;33.75;30.75;;;;;;;;6487463;39;9022;-61
2022/11/24 16:54:11;;;;;;;;;30.25;29.00;;;;;;;;6488984;39;8945;-60
2022/11/24 17:00:16;;;;;;;;;33.75;33.00;;;;;;;;6488267;47;9002;-59
2022/11/24 17:06:18;;;;;;;;;36.50;30.00;;;;;;;;6488229;46;8885;-58
2022/11/24 17:12:22;;;;;;;;;27.75;27.75;;;;;;;;6488455;39;9026;-58
2022/11/24 17:18:24;;;;;;;;;38.25;38.25;;;;;;;;6488135;39;8866;-59
2022/11/24 17:24:26;;;;;;;;;31.00;30.25;;;;;;;;6489173;39;9554;-59
2022/11/24 17:30:28;;;;;;;;;32.50;32.50;;;;;;;;6490452;39;8905;-60
2022/11/24 17:36:33;;;;;;;;;35.25;31.75;;;;;;;;6490939;39;8907;-59
2022/11/24 17:42:36;;;;;;;;;36.50;31.25;;;;;;;;6489654;31;8890;-60
2022/11/24 17:48:39;;;;;;;;;34.50;28.00;;;;;;;;6489464;46;8875;-60
2022/11/24 17:54:42;;;;;;;;;32.25;31.25;;;;;;;;6489867;46;8906;-60
2022/11/24 18:00:48;;;;;;;;;40.00;37.25;;;;;;;;6490013;39;8908;-59
2022/11/24 18:06:50;;;;;;;;;33.25;29.75;;;;;;;;6490739;39;8877;-59
2022/11/24 18:12:53;;;;;;;;;37.50;35.50;;;;;;;;6490239;39;9768;-61
2022/11/24 18:18:57;;;;;;;;;40.50;38.00;;;;;;;;6490694;31;8870;-59
2022/11/24 18:25:18;;;;;;;;;33.00;28.25;;;;;;;;6490123;46;8875;-58
2022/11/24 18:31:21;;;;;;;;;28.50;26.50;;;;;;;;6489668;39;9493;-59
2022/11/24 18:37:23;;;;;;;;;30.00;29.25;;;;;;;;6490243;39;8927;-58
2022/11/24 18:43:27;;;;;;;;;37.25;32.00;;;;;;;;6489370;39;8874;-60
2022/11/24 18:49:30;;;;;;;;;33.75;29.75;;;;;;;;6488995;31;8984;-59
2022/11/24 18:55:32;;;;;;;;;29.25;25.25;;;;;;;;6487511;39;8951;-58
2022/11/24 19:01:36;;;;;;;;;31.50;31.50;;;;;;;;6489661;39;9466;-58
2022/11/24 19:07:38;;;;;;;;;24.00;22.25;;;;;;;;6489106;39;8937;-59
2022/11/24 19:13:40;;;;;;;;;30.25;25.50;;;;;;;;6489532;39;8987;-58
2022/11/24 19:19:42;;;;;;;;;29.25;23.75;;;;;;;;6489234;39;8908;-59
2022/11/24 19:25:44;;;;;;;;;24.25;24.00;;;;;;;;6489366;39;8897;-58
2022/11/24 19:31:48;;;;;;;;;29.25;28.00;;;;;;;;6488739;39;9188;-58
2022/11/24 19:37:50;;;;;;;;;24.25;23.50;;;;;;;;6490438;31;9594;-59
2022/11/24 19:43:55;;;;;;;;;30.50;24.75;;;;;;;;6489279;46;9077;-59
2022/11/24 19:49:57;;;;;;;;;29.25;26.25;;;;;;;;6489187;39;8965;-59
2022/11/24 19:56:23;;;;;;;;;18.50;16.00;;;;;;;;6489407;36;8859;-58
2022/11/24 20:02:28;;;;;;;;;21.25;19.00;;;;;;;;6488523;39;8898;-60
2022/11/24 20:08:32;;;;;;;;;26.00;25.00;;;;;;;;6490311;39;8845;-59
2022/11/24 20:14:34;;;;;;;;;25.25;23.75;;;;;;;;6488656;31;9055;-59
2022/11/24 20:20:37;;;;;;;;;27.25;25.00;;;;;;;;6489352;39;8813;-58
2022/11/24 20:26:48;;;;;;;;;18.75;17.50;;;;;;;;6488148;47;8873;-60
2022/11/24 20:32:50;;;;;;;;;27.00;24.25;;;;;;;;6488832;39;8951;-58
2022/11/24 20:38:53;;;;;;;;;24.50;22.00;;;;;;;;6489220;39;8893;-58
2022/11/24 20:44:59;;;;;;;;;20.50;20.50;;;;;;;;6488691;31;9361;-58
2022/11/24 20:51:03;;;;;;;;;27.75;23.75;;;;;;;;6489332;31;8857;-61
2022/11/24 20:57:05;;;;;;;;;21.25;20.75;;;;;;;;6488508;39;9631;-58
2022/11/24 21:03:07;;;;;;;;;27.25;24.25;;;;;;;;6489896;39;8913;-58
2022/11/24 21:09:11;;;;;;;;;28.75;23.75;;;;;;;;6490071;46;8888;-60
2022/11/24 21:15:13;;;;;;;;;17.75;17.75;;;;;;;;6490311;46;8975;-59
2022/11/24 21:21:18;;;;;;;;;25.00;23.00;;;;;;;;6490654;39;8978;-57
2022/11/24 21:27:20;;;;;;;;;17.00;16.50;;;;;;;;6488452;39;8885;-59
2022/11/24 21:33:23;;;;;;;;;29.25;24.75;;;;;;;;6489812;31;9022;-59
2022/11/24 21:39:27;;;;;;;;;23.25;23.25;;;;;;;;6491444;31;8869;-60
2022/11/24 21:45:33;;;;;;;;;18.00;16.25;;;;;;;;6490225;39;8971;-59
2022/11/24 21:51:35;;;;;;;;;28.00;19.75;;;;;;;;6489185;39;8901;-59
2022/11/24 21:57:37;;;;;;;;;23.50;19.00;;;;;;;;6489756;31;8963;-58
2022/11/24 22:03:40;;;;;;;;;21.25;20.50;;;;;;;;6489585;39;9145;-59
2022/11/24 22:09:42;;;;;;;;;23.00;17.00;;;;;;;;6490300;39;8908;-59
2022/11/24 22:15:44;;;;;;;;;17.75;17.75;;;;;;;;6488766;31;8953;-59
2022/11/24 22:21:47;;;;;;;;;19.25;19.25;;;;;;;;6490075;39;8865;-58
2022/11/24 22:27:49;;;;;;;;;14.00;12.50;;;;;;;;6489817;39;8837;-59
2022/11/24 22:33:53;;;;;;;;;18.50;16.00;;;;;;;;6489547;46;9316;-58
2022/11/24 22:39:55;;;;;;;;;19.50;19.50;;;;;;;;6489663;31;8923;-58
2022/11/24 22:46:04;;;;;;;;;24.00;22.00;;;;;;;;6489196;46;8893;-57
2022/11/24 22:52:07;;;;;;;;;14.25;11.00;;;;;;;;6489399;39;8877;-57
2022/11/24 22:58:09;;;;;;;;;19.00;16.25;;;;;;;;6489181;39;8908;-59
2022/11/24 23:04:12;;;;;;;;;19.00;17.00;;;;;;;;6489625;39;8914;-59
2022/11/24 23:10:15;;;;;;;;;18.25;15.50;;;;;;;;6489631;46;8962;-58
2022/11/24 23:16:18;;;;;;;;;17.00;16.25;;;;;;;;6490537;31;9051;-59
2022/11/24 23:22:20;;;;;;;;;18.75;16.25;;;;;;;;6489272;39;8930;-59
2022/11/24 23:28:22;;;;;;;;;20.00;20.00;;;;;;;;6488752;39;8960;-59
2022/11/24 23:34:24;;;;;;;;;20.50;18.75;;;;;;;;6489478;31;8916;-59
2022/11/24 23:40:26;;;;;;;;;20.00;19.00;;;;;;;;6488950;46;8886;-58
2022/11/24 23:46:29;;;;;;;;;9.50;7.00;;;;;;;;6488754;31;8950;-59
2022/11/24 23:52:31;;;;;;;;;18.00;18.00;;;;;;;;6489703;31;8908;-59
2022/11/24 23:58:34;;;;;;;;;20.25;19.00;;;;;;;;6488537;39;9564;-59
